sensor_id;sensor_type;location;lat;lon;timestamp;pressure;altitude;pressure_sealevel;temperature;humidity
11936;BME280;6027;48.576;9.180;2023-02-17T00:01:44;97742.06;;;8.71;62.92
11936;BME280;6027;48.576;9.180;2023-02-17T00:04:10;97744.31;;;8.66;63.24
11936;BME280;6027;48.576;9.180;2023-02-17T00:06:35;97741.88;;;8.64;63.07
11936;BME280;6027;48.576;9.180;2023-02-17T00:09:01;97741.88;;;8.64;63.08
11936;BME280;6027;48.576;9.180;2023-02-17T00:11:28;97737.34;;;8.75;63.10
11936;BME280;6027;48.576;9.180;2023-02-17T00:13:53;97741.34;;;8.79;62.67
11936;BME280;6027;48.576;9.180;2023-02-17T00:16:21;97745.34;;;8.83;62.37
11936;BME280;6027;48.576;9.180;2023-02-17T00:18:50;97741.25;;;8.88;62.21
11936;BME280;6027;48.576;9.180;2023-02-17T00:21:18;97737.03;;;8.95;61.94
11936;BME280;6027;48.576;9.180;2023-02-17T00:23:45;97736.59;;;9.00;61.27
11936;BME280;6027;48.576;9.180;2023-02-17T00:26:12;97730.19;;;9.03;61.26
11936;BME280;6027;48.576;9.180;2023-02-17T00:28:37;97735.00;;;9.07;60.97
11936;BME280;6027;48.576;9.180;2023-02-17T00:31:14;97732.88;;;9.11;60.94
11936;BME280;6027;48.576;9.180;2023-02-17T00:33:40;97733.41;;;9.14;60.55
11936;BME280;6027;48.576;9.180;2023-02-17T00:36:09;97719.00;;;9.09;60.76
11936;BME280;6027;48.576;9.180;2023-02-17T00:38:35;97725.63;;;9.13;61.14
11936;BME280;6027;48.576;9.180;2023-02-17T00:41:01;97718.84;;;9.10;60.86
11936;BME280;6027;48.576;9.180;2023-02-17T00:43:26;97723.16;;;9.11;61.24
11936;BME280;6027;48.576;9.180;2023-02-17T00:45:52;97719.63;;;9.03;62.48
11936;BME280;6027;48.576;9.180;2023-02-17T00:48:17;97718.56;;;8.95;62.84
11936;BME280;6027;48.576;9.180;2023-02-17T00:50:42;97720.38;;;8.95;62.85
11936;BME280;6027;48.576;9.180;2023-02-17T00:53:08;97719.91;;;8.99;62.80
11936;BME280;6027;48.576;9.180;2023-02-17T00:55:33;97712.97;;;8.98;63.10
11936;BME280;6027;48.576;9.180;2023-02-17T00:57:59;97721.28;;;9.04;63.37
11936;BME280;6027;48.576;9.180;2023-02-17T01:00:24;97719.28;;;9.06;62.97
11936;BME280;6027;48.576;9.180;2023-02-17T01:02:50;97718.41;;;8.97;63.63
11936;BME280;6027;48.576;9.180;2023-02-17T01:05:15;97719.09;;;8.81;64.74
11936;BME280;6027;48.576;9.180;2023-02-17T01:07:41;97721.44;;;8.84;65.35
11936;BME280;6027;48.576;9.180;2023-02-17T01:10:07;97722.09;;;8.86;65.32
11936;BME280;6027;48.576;9.180;2023-02-17T01:12:32;97723.97;;;8.76;65.92
11936;BME280;6027;48.576;9.180;2023-02-17T01:14:58;97721.03;;;8.61;67.32
11936;BME280;6027;48.576;9.180;2023-02-17T01:17:24;97726.47;;;8.60;68.17
11936;BME280;6027;48.576;9.180;2023-02-17T01:19:50;97716.50;;;8.54;68.49
11936;BME280;6027;48.576;9.180;2023-02-17T01:22:15;97723.72;;;8.52;68.63
11936;BME280;6027;48.576;9.180;2023-02-17T01:24:40;97722.34;;;8.48;69.54
11936;BME280;6027;48.576;9.180;2023-02-17T01:27:06;97707.66;;;8.45;68.88
11936;BME280;6027;48.576;9.180;2023-02-17T01:29:31;97707.88;;;8.52;68.78
11936;BME280;6027;48.576;9.180;2023-02-17T01:31:56;97701.56;;;8.45;69.90
11936;BME280;6027;48.576;9.180;2023-02-17T01:34:22;97696.28;;;8.45;70.16
11936;BME280;6027;48.576;9.180;2023-02-17T01:36:47;97692.28;;;8.41;70.27
11936;BME280;6027;48.576;9.180;2023-02-17T01:39:14;97686.91;;;8.32;71.50
11936;BME280;6027;48.576;9.180;2023-02-17T01:41:40;97690.22;;;8.35;71.15
11936;BME280;6027;48.576;9.180;2023-02-17T01:44:19;97694.78;;;8.42;71.38
11936;BME280;6027;48.576;9.180;2023-02-17T01:46:47;97684.81;;;8.54;70.81
11936;BME280;6027;48.576;9.180;2023-02-17T01:51:41;97670.19;;;8.59;69.67
11936;BME280;6027;48.576;9.180;2023-02-17T01:54:12;97662.72;;;8.55;70.37
11936;BME280;6027;48.576;9.180;2023-02-17T01:56:40;97666.13;;;8.65;69.98
11936;BME280;6027;48.576;9.180;2023-02-17T01:59:12;97654.13;;;8.71;69.34
11936;BME280;6027;48.576;9.180;2023-02-17T02:01:40;97653.28;;;8.70;69.94
11936;BME280;6027;48.576;9.180;2023-02-17T02:04:07;97651.72;;;8.77;69.33
11936;BME280;6027;48.576;9.180;2023-02-17T02:06:34;97652.84;;;8.75;69.50
11936;BME280;6027;48.576;9.180;2023-02-17T02:09:06;97652.84;;;8.75;70.13
11936;BME280;6027;48.576;9.180;2023-02-17T02:11:33;97646.81;;;8.82;68.86
11936;BME280;6027;48.576;9.180;2023-02-17T02:14:00;97649.47;;;8.82;68.79
11936;BME280;6027;48.576;9.180;2023-02-17T02:16:44;97651.13;;;8.83;69.14
11936;BME280;6027;48.576;9.180;2023-02-17T02:33:23;97650.19;;;8.92;69.10
11936;BME280;6027;48.576;9.180;2023-02-17T02:36:45;97654.03;;;8.98;68.95
11936;BME280;6027;48.576;9.180;2023-02-17T02:39:13;97650.28;;;9.00;69.36
11936;BME280;6027;48.576;9.180;2023-02-17T02:42:00;97648.59;;;8.99;69.31
11936;BME280;6027;48.576;9.180;2023-02-17T02:44:26;97645.97;;;8.99;69.42
11936;BME280;6027;48.576;9.180;2023-02-17T02:47:03;97638.72;;;9.02;69.96
11936;BME280;6027;48.576;9.180;2023-02-17T02:49:30;97640.72;;;9.08;69.92
11936;BME280;6027;48.576;9.180;2023-02-17T02:57:48;97638.38;;;9.05;70.52
11936;BME280;6027;48.576;9.180;2023-02-17T03:00:19;97635.75;;;9.05;70.69
11936;BME280;6027;48.576;9.180;2023-02-17T03:02:50;97640.16;;;8.96;71.24
11936;BME280;6027;48.576;9.180;2023-02-17T03:05:27;97635.09;;;9.03;71.84
11936;BME280;6027;48.576;9.180;2023-02-17T03:08:05;97642.19;;;9.02;72.31
11936;BME280;6027;48.576;9.180;2023-02-17T03:10:33;97633.75;;;8.98;72.16
11936;BME280;6027;48.576;9.180;2023-02-17T03:13:01;97625.81;;;8.98;73.18
11936;BME280;6027;48.576;9.180;2023-02-17T03:15:32;97627.25;;;8.93;73.83
11936;BME280;6027;48.576;9.180;2023-02-17T03:17:59;97624.16;;;8.97;73.88
11936;BME280;6027;48.576;9.180;2023-02-17T03:20:32;97621.66;;;8.96;73.65
11936;BME280;6027;48.576;9.180;2023-02-17T03:22:59;97617.38;;;8.95;74.37
11936;BME280;6027;48.576;9.180;2023-02-17T03:25:24;97617.81;;;8.90;74.85
11936;BME280;6027;48.576;9.180;2023-02-17T03:27:49;97611.84;;;8.88;74.97
11936;BME280;6027;48.576;9.180;2023-02-17T03:30:15;97616.22;;;8.97;74.78
11936;BME280;6027;48.576;9.180;2023-02-17T03:32:41;97611.56;;;8.91;75.35
11936;BME280;6027;48.576;9.180;2023-02-17T03:35:07;97605.97;;;8.94;75.35
11936;BME280;6027;48.576;9.180;2023-02-17T03:37:33;97597.06;;;8.95;75.35
11936;BME280;6027;48.576;9.180;2023-02-17T03:39:59;97599.63;;;8.87;76.94
11936;BME280;6027;48.576;9.180;2023-02-17T03:42:24;97591.22;;;8.84;76.59
11936;BME280;6027;48.576;9.180;2023-02-17T03:44:50;97596.25;;;8.95;76.60
11936;BME280;6027;48.576;9.180;2023-02-17T03:47:15;97602.34;;;8.95;76.83
11936;BME280;6027;48.576;9.180;2023-02-17T03:49:40;97605.91;;;8.86;77.08
11936;BME280;6027;48.576;9.180;2023-02-17T03:52:06;97607.22;;;8.82;78.09
11936;BME280;6027;48.576;9.180;2023-02-17T03:54:35;97617.78;;;8.82;77.55
11936;BME280;6027;48.576;9.180;2023-02-17T03:57:01;97614.81;;;8.85;78.34
11936;BME280;6027;48.576;9.180;2023-02-17T03:59:27;97615.44;;;8.79;77.76
11936;BME280;6027;48.576;9.180;2023-02-17T04:01:53;97606.16;;;8.75;78.70
11936;BME280;6027;48.576;9.180;2023-02-17T04:04:18;97634.13;;;8.68;79.43
11936;BME280;6027;48.576;9.180;2023-02-17T04:06:44;97628.81;;;8.60;80.25
11936;BME280;6027;48.576;9.180;2023-02-17T04:09:09;97631.59;;;8.58;80.47
11936;BME280;6027;48.576;9.180;2023-02-17T04:11:35;97632.88;;;8.54;81.37
11936;BME280;6027;48.576;9.180;2023-02-17T04:14:00;97636.34;;;8.55;81.56
11936;BME280;6027;48.576;9.180;2023-02-17T04:16:26;97621.47;;;8.54;81.37
11936;BME280;6027;48.576;9.180;2023-02-17T04:18:51;97626.16;;;8.60;81.78
11936;BME280;6027;48.576;9.180;2023-02-17T04:21:16;97634.91;;;8.60;81.61
11936;BME280;6027;48.576;9.180;2023-02-17T04:23:42;97629.94;;;8.57;82.93
11936;BME280;6027;48.576;9.180;2023-02-17T04:26:07;97635.34;;;8.56;83.29
11936;BME280;6027;48.576;9.180;2023-02-17T04:28:34;97634.66;;;8.54;83.72
11936;BME280;6027;48.576;9.180;2023-02-17T04:31:01;97631.16;;;8.63;83.56
11936;BME280;6027;48.576;9.180;2023-02-17T04:33:27;97627.13;;;8.59;83.90
11936;BME280;6027;48.576;9.180;2023-02-17T04:35:52;97625.47;;;8.58;84.80
11936;BME280;6027;48.576;9.180;2023-02-17T04:38:28;97625.03;;;8.45;85.94
11936;BME280;6027;48.576;9.180;2023-02-17T04:40:55;97623.72;;;8.49;86.39
11936;BME280;6027;48.576;9.180;2023-02-17T04:43:22;97633.25;;;8.42;87.24
11936;BME280;6027;48.576;9.180;2023-02-17T04:45:48;97622.31;;;8.37;88.05
11936;BME280;6027;48.576;9.180;2023-02-17T04:48:13;97625.25;;;8.34;88.29
11936;BME280;6027;48.576;9.180;2023-02-17T04:50:39;97626.22;;;8.32;88.60
11936;BME280;6027;48.576;9.180;2023-02-17T04:53:05;97620.09;;;8.32;89.59
11936;BME280;6027;48.576;9.180;2023-02-17T04:55:30;97621.31;;;8.38;89.21
11936;BME280;6027;48.576;9.180;2023-02-17T04:58:03;97625.63;;;8.39;89.32
11936;BME280;6027;48.576;9.180;2023-02-17T05:00:28;97619.13;;;8.33;89.94
11936;BME280;6027;48.576;9.180;2023-02-17T05:02:55;97616.50;;;8.33;90.62
11936;BME280;6027;48.576;9.180;2023-02-17T05:05:21;97620.94;;;8.32;90.47
11936;BME280;6027;48.576;9.180;2023-02-17T05:07:47;97616.25;;;8.26;91.43
11936;BME280;6027;48.576;9.180;2023-02-17T05:10:14;97610.38;;;8.32;91.54
11936;BME280;6027;48.576;9.180;2023-02-17T05:12:40;97604.53;;;8.39;91.51
11936;BME280;6027;48.576;9.180;2023-02-17T05:15:06;97604.41;;;8.30;92.44
11936;BME280;6027;48.576;9.180;2023-02-17T05:17:32;97602.72;;;8.29;93.21
11936;BME280;6027;48.576;9.180;2023-02-17T05:22:31;97607.25;;;8.19;94.74
11936;BME280;6027;48.576;9.180;2023-02-17T05:24:57;97598.63;;;8.27;94.22
11936;BME280;6027;48.576;9.180;2023-02-17T05:27:23;97601.53;;;8.24;95.22
11936;BME280;6027;48.576;9.180;2023-02-17T05:29:49;97602.06;;;8.27;94.25
11936;BME280;6027;48.576;9.180;2023-02-17T05:32:16;97598.38;;;8.20;95.56
11936;BME280;6027;48.576;9.180;2023-02-17T05:34:41;97594.59;;;8.23;95.29
11936;BME280;6027;48.576;9.180;2023-02-17T05:37:07;97600.88;;;8.22;95.89
11936;BME280;6027;48.576;9.180;2023-02-17T05:39:32;97601.25;;;8.27;95.18
11936;BME280;6027;48.576;9.180;2023-02-17T05:41:58;97605.75;;;8.17;96.01
11936;BME280;6027;48.576;9.180;2023-02-17T05:44:23;97604.31;;;8.22;96.55
11936;BME280;6027;48.576;9.180;2023-02-17T05:46:48;97608.53;;;8.15;96.38
11936;BME280;6027;48.576;9.180;2023-02-17T05:49:14;97614.50;;;8.17;96.73
11936;BME280;6027;48.576;9.180;2023-02-17T05:51:39;97621.31;;;8.10;96.95
11936;BME280;6027;48.576;9.180;2023-02-17T05:54:05;97618.41;;;8.13;97.26
11936;BME280;6027;48.576;9.180;2023-02-17T05:56:31;97619.66;;;8.09;97.22
11936;BME280;6027;48.576;9.180;2023-02-17T05:58:56;97625.47;;;8.13;98.08
11936;BME280;6027;48.576;9.180;2023-02-17T06:01:22;97629.63;;;8.15;97.49
11936;BME280;6027;48.576;9.180;2023-02-17T06:03:47;97627.28;;;8.12;97.39
11936;BME280;6027;48.576;9.180;2023-02-17T06:06:12;97633.25;;;8.14;97.74
11936;BME280;6027;48.576;9.180;2023-02-17T06:08:38;97631.59;;;8.13;98.44
11936;BME280;6027;48.576;9.180;2023-02-17T06:11:04;97646.88;;;8.10;98.52
11936;BME280;6027;48.576;9.180;2023-02-17T06:13:29;97639.09;;;8.08;98.87
11936;BME280;6027;48.576;9.180;2023-02-17T06:15:55;97633.03;;;8.08;99.69
11936;BME280;6027;48.576;9.180;2023-02-17T06:18:20;97635.81;;;8.06;99.37
11936;BME280;6027;48.576;9.180;2023-02-17T06:20:46;97639.94;;;8.09;99.97
11936;BME280;6027;48.576;9.180;2023-02-17T06:23:11;97642.56;;;8.09;100.00
11936;BME280;6027;48.576;9.180;2023-02-17T06:25:36;97641.38;;;8.03;100.00
11936;BME280;6027;48.576;9.180;2023-02-17T06:28:02;97637.31;;;8.09;100.00
11936;BME280;6027;48.576;9.180;2023-02-17T06:30:29;97642.44;;;8.10;100.00
11936;BME280;6027;48.576;9.180;2023-02-17T06:32:54;97642.44;;;8.10;100.00
11936;BME280;6027;48.576;9.180;2023-02-17T06:35:20;97647.41;;;8.13;100.00
11936;BME280;6027;48.576;9.180;2023-02-17T06:37:45;97655.03;;;8.16;100.00
11936;BME280;6027;48.576;9.180;2023-02-17T06:40:11;97659.03;;;8.20;100.00
11936;BME280;6027;48.576;9.180;2023-02-17T06:42:37;97655.44;;;8.21;100.00
11936;BME280;6027;48.576;9.180;2023-02-17T06:45:05;97654.66;;;8.29;99.98
11936;BME280;6027;48.576;9.180;2023-02-17T06:47:32;97644.69;;;8.32;99.63
11936;BME280;6027;48.576;9.180;2023-02-17T06:49:58;97655.25;;;8.32;99.89
11936;BME280;6027;48.576;9.180;2023-02-17T06:52:24;97661.38;;;8.23;100.00
11936;BME280;6027;48.576;9.180;2023-02-17T06:54:49;97656.81;;;8.25;99.66
11936;BME280;6027;48.576;9.180;2023-02-17T06:57:15;97655.63;;;8.28;99.88
11936;BME280;6027;48.576;9.180;2023-02-17T06:59:41;97663.97;;;8.33;99.48
11936;BME280;6027;48.576;9.180;2023-02-17T07:02:09;97661.19;;;8.35;99.21
11936;BME280;6027;48.576;9.180;2023-02-17T07:04:37;97663.53;;;8.38;98.71
11936;BME280;6027;48.576;9.180;2023-02-17T07:07:03;97664.53;;;8.37;98.00
11936;BME280;6027;48.576;9.180;2023-02-17T07:09:28;97662.56;;;8.39;97.92
11936;BME280;6027;48.576;9.180;2023-02-17T07:11:53;97661.84;;;8.46;96.56
11936;BME280;6027;48.576;9.180;2023-02-17T07:14:19;97670.25;;;8.50;96.46
11936;BME280;6027;48.576;9.180;2023-02-17T07:16:44;97688.59;;;8.51;95.62
11936;BME280;6027;48.576;9.180;2023-02-17T07:19:10;97685.78;;;8.53;95.21
11936;BME280;6027;48.576;9.180;2023-02-17T07:21:35;97682.72;;;8.57;94.71
11936;BME280;6027;48.576;9.180;2023-02-17T07:24:01;97699.09;;;8.61;94.87
11936;BME280;6027;48.576;9.180;2023-02-17T07:26:26;97697.13;;;8.63;94.27
11936;BME280;6027;48.576;9.180;2023-02-17T07:28:51;97697.63;;;8.66;94.32
11936;BME280;6027;48.576;9.180;2023-02-17T07:31:17;97695.69;;;8.69;92.41
11936;BME280;6027;48.576;9.180;2023-02-17T07:33:43;97702.47;;;8.71;92.36
11936;BME280;6027;48.576;9.180;2023-02-17T07:36:15;97696.91;;;8.74;92.25
11936;BME280;6027;48.576;9.180;2023-02-17T07:38:41;97708.16;;;8.76;92.73
11936;BME280;6027;48.576;9.180;2023-02-17T07:41:09;97697.59;;;8.76;92.96
11936;BME280;6027;48.576;9.180;2023-02-17T07:43:34;97694.94;;;8.76;93.14
11936;BME280;6027;48.576;9.180;2023-02-17T07:46:00;97703.47;;;8.88;92.33
11936;BME280;6027;48.576;9.180;2023-02-17T07:48:25;97704.75;;;9.02;92.30
11936;BME280;6027;48.576;9.180;2023-02-17T07:50:51;97700.31;;;9.02;92.06
11936;BME280;6027;48.576;9.180;2023-02-17T07:53:17;97700.50;;;9.09;91.45
11936;BME280;6027;48.576;9.180;2023-02-17T07:55:42;97701.41;;;9.17;91.87
11936;BME280;6027;48.576;9.180;2023-02-17T07:58:07;97707.41;;;9.27;91.82
11936;BME280;6027;48.576;9.180;2023-02-17T08:00:33;97694.38;;;9.26;91.67
11936;BME280;6027;48.576;9.180;2023-02-17T08:02:59;97700.31;;;9.28;91.52
11936;BME280;6027;48.576;9.180;2023-02-17T08:05:24;97709.09;;;9.28;91.69
11936;BME280;6027;48.576;9.180;2023-02-17T08:07:50;97713.09;;;9.32;93.17
11936;BME280;6027;48.576;9.180;2023-02-17T08:10:36;97714.28;;;9.38;93.60
11936;BME280;6027;48.576;9.180;2023-02-17T08:13:21;97715.66;;;9.42;93.99
11936;BME280;6027;48.576;9.180;2023-02-17T08:15:47;97706.06;;;9.41;94.48
11936;BME280;6027;48.576;9.180;2023-02-17T08:18:12;97720.75;;;9.44;95.46
11936;BME280;6027;48.576;9.180;2023-02-17T08:20:38;97715.16;;;9.47;95.56
11936;BME280;6027;48.576;9.180;2023-02-17T08:23:03;97721.28;;;9.47;96.06
11936;BME280;6027;48.576;9.180;2023-02-17T08:25:33;97717.72;;;9.56;95.21
11936;BME280;6027;48.576;9.180;2023-02-17T08:28:00;97703.84;;;9.62;95.84
11936;BME280;6027;48.576;9.180;2023-02-17T08:30:25;97707.84;;;9.66;94.72
11936;BME280;6027;48.576;9.180;2023-02-17T08:32:51;97705.81;;;9.78;94.14
11936;BME280;6027;48.576;9.180;2023-02-17T08:35:16;97718.38;;;9.84;94.73
11936;BME280;6027;48.576;9.180;2023-02-17T08:37:43;97714.81;;;9.93;94.92
11936;BME280;6027;48.576;9.180;2023-02-17T08:40:09;97707.56;;;10.03;92.33
11936;BME280;6027;48.576;9.180;2023-02-17T08:42:35;97709.16;;;10.22;91.43
11936;BME280;6027;48.576;9.180;2023-02-17T08:45:02;97703.91;;;10.30;90.81
11936;BME280;6027;48.576;9.180;2023-02-17T08:47:27;97709.88;;;10.41;90.29
11936;BME280;6027;48.576;9.180;2023-02-17T08:49:53;97717.81;;;10.41;89.52
11936;BME280;6027;48.576;9.180;2023-02-17T08:52:19;97712.38;;;10.42;89.68
11936;BME280;6027;48.576;9.180;2023-02-17T08:54:44;97720.66;;;10.39;90.06
11936;BME280;6027;48.576;9.180;2023-02-17T08:57:10;97716.00;;;10.41;90.32
11936;BME280;6027;48.576;9.180;2023-02-17T08:59:35;97719.66;;;10.40;91.10
11936;BME280;6027;48.576;9.180;2023-02-17T09:02:01;97709.09;;;10.48;91.44
11936;BME280;6027;48.576;9.180;2023-02-17T09:04:26;97707.78;;;10.52;91.14
11936;BME280;6027;48.576;9.180;2023-02-17T09:06:53;97695.22;;;10.62;90.95
11936;BME280;6027;48.576;9.180;2023-02-17T09:09:22;97699.38;;;10.65;90.21
11936;BME280;6027;48.576;9.180;2023-02-17T09:11:52;97702.53;;;10.68;89.90
11936;BME280;6027;48.576;9.180;2023-02-17T09:14:19;97703.72;;;10.74;89.86
11936;BME280;6027;48.576;9.180;2023-02-17T09:16:49;97715.13;;;10.75;89.24
11936;BME280;6027;48.576;9.180;2023-02-17T09:19:15;97712.31;;;10.76;90.30
11936;BME280;6027;48.576;9.180;2023-02-17T09:21:40;97721.94;;;10.77;90.76
11936;BME280;6027;48.576;9.180;2023-02-17T09:24:06;97706.00;;;10.69;91.64
11936;BME280;6027;48.576;9.180;2023-02-17T09:26:32;97716.63;;;10.77;92.46
11936;BME280;6027;48.576;9.180;2023-02-17T09:28:59;97701.72;;;10.76;92.42
11936;BME280;6027;48.576;9.180;2023-02-17T09:31:26;97704.38;;;10.76;93.16
11936;BME280;6027;48.576;9.180;2023-02-17T09:33:52;97685.66;;;10.69;93.08
11936;BME280;6027;48.576;9.180;2023-02-17T09:36:21;97693.94;;;10.75;94.71
11936;BME280;6027;48.576;9.180;2023-02-17T09:38:48;97704.03;;;10.71;95.25
11936;BME280;6027;48.576;9.180;2023-02-17T09:41:23;97693.44;;;10.71;95.44
11936;BME280;6027;48.576;9.180;2023-02-17T09:43:52;97711.50;;;10.76;94.65
11936;BME280;6027;48.576;9.180;2023-02-17T09:46:28;97702.56;;;10.77;95.04
11936;BME280;6027;48.576;9.180;2023-02-17T09:49:01;97686.66;;;10.77;95.81
11936;BME280;6027;48.576;9.180;2023-02-17T09:54:39;97702.72;;;10.83;95.21
11936;BME280;6027;48.576;9.180;2023-02-17T09:57:07;97695.44;;;10.85;95.67
11936;BME280;6027;48.576;9.180;2023-02-17T09:59:43;97689.81;;;10.88;96.24
11936;BME280;6027;48.576;9.180;2023-02-17T10:02:15;97695.28;;;10.95;96.49
11936;BME280;6027;48.576;9.180;2023-02-17T10:04:46;97703.38;;;11.01;95.47
11936;BME280;6027;48.576;9.180;2023-02-17T10:07:56;97703.41;;;11.10;96.05
11936;BME280;6027;48.576;9.180;2023-02-17T10:10:31;97710.88;;;11.14;95.58
11936;BME280;6027;48.576;9.180;2023-02-17T10:13:02;97715.81;;;11.17;96.30
11936;BME280;6027;48.576;9.180;2023-02-17T10:15:40;97723.59;;;11.19;96.24
11936;BME280;6027;48.576;9.180;2023-02-17T10:23:27;97719.50;;;11.32;97.28
11936;BME280;6027;48.576;9.180;2023-02-17T10:31:43;97702.72;;;11.40;98.55
11936;BME280;6027;48.576;9.180;2023-02-17T10:36:56;97724.25;;;11.77;99.26
11936;BME280;6027;48.576;9.180;2023-02-17T10:39:39;97731.84;;;12.05;97.20
11936;BME280;6027;48.576;9.180;2023-02-17T10:42:20;97742.41;;;12.13;95.93
11936;BME280;6027;48.576;9.180;2023-02-17T10:44:48;97762.69;;;12.06;95.41
11936;BME280;6027;48.576;9.180;2023-02-17T10:47:16;97756.09;;;11.86;95.43
11936;BME280;6027;48.576;9.180;2023-02-17T10:49:45;97759.75;;;11.76;96.92
11936;BME280;6027;48.576;9.180;2023-02-17T10:52:43;97763.06;;;11.70;97.18
11936;BME280;6027;48.576;9.180;2023-02-17T10:55:19;97755.09;;;11.70;97.23
11936;BME280;6027;48.576;9.180;2023-02-17T10:57:52;97739.19;;;11.70;97.16
11936;BME280;6027;48.576;9.180;2023-02-17T11:00:18;97734.69;;;11.71;96.75
11936;BME280;6027;48.576;9.180;2023-02-17T11:02:46;97732.72;;;11.65;98.62
11936;BME280;6027;48.576;9.180;2023-02-17T11:05:28;97726.59;;;11.81;99.79
11936;BME280;6027;48.576;9.180;2023-02-17T11:08:00;97726.53;;;11.97;97.58
11936;BME280;6027;48.576;9.180;2023-02-17T11:10:30;97707.28;;;12.11;96.67
11936;BME280;6027;48.576;9.180;2023-02-17T11:12:57;97710.38;;;12.23;96.38
11936;BME280;6027;48.576;9.180;2023-02-17T11:15:31;97727.56;;;12.35;95.59
11936;BME280;6027;48.576;9.180;2023-02-17T11:18:00;97722.22;;;12.43;95.24
11936;BME280;6027;48.576;9.180;2023-02-17T11:20:34;97723.91;;;12.36;95.63
11936;BME280;6027;48.576;9.180;2023-02-17T11:25:30;97735.78;;;12.17;96.67
11936;BME280;6027;48.576;9.180;2023-02-17T11:28:02;97734.00;;;12.09;98.64
11936;BME280;6027;48.576;9.180;2023-02-17T11:30:30;97712.28;;;11.98;98.61
11936;BME280;6027;48.576;9.180;2023-02-17T11:32:56;97719.22;;;11.99;99.20
11936;BME280;6027;48.576;9.180;2023-02-17T11:38:12;97693.81;;;12.13;99.48
11936;BME280;6027;48.576;9.180;2023-02-17T11:40:39;97706.91;;;12.14;99.08
11936;BME280;6027;48.576;9.180;2023-02-17T11:43:05;97697.00;;;12.08;100.00
11936;BME280;6027;48.576;9.180;2023-02-17T11:45:44;97699.00;;;12.06;100.00
11936;BME280;6027;48.576;9.180;2023-02-17T11:56:16;97709.94;;;12.03;100.00
11936;BME280;6027;48.576;9.180;2023-02-17T12:02:11;97700.81;;;11.97;100.00
11936;BME280;6027;48.576;9.180;2023-02-17T12:04:53;97699.50;;;11.93;100.00
11936;BME280;6027;48.576;9.180;2023-02-17T12:10:18;97699.72;;;11.84;100.00
11936;BME280;6027;48.576;9.180;2023-02-17T12:18:55;97717.97;;;11.70;100.00
11936;BME280;6027;48.576;9.180;2023-02-17T12:26:48;97727.41;;;11.73;100.00
11936;BME280;6027;48.576;9.180;2023-02-17T12:31:58;97720.91;;;11.75;100.00
11936;BME280;6027;48.576;9.180;2023-02-17T12:34:33;97718.28;;;11.67;100.00
11936;BME280;6027;48.576;9.180;2023-02-17T12:37:02;97717.28;;;11.68;100.00
11936;BME280;6027;48.576;9.180;2023-02-17T12:39:45;97712.66;;;11.70;100.00
11936;BME280;6027;48.576;9.180;2023-02-17T12:42:17;97713.81;;;11.76;100.00
11936;BME280;6027;48.576;9.180;2023-02-17T12:44:54;97719.94;;;11.85;100.00
11936;BME280;6027;48.576;9.180;2023-02-17T12:47:37;97714.16;;;11.81;100.00
11936;BME280;6027;48.576;9.180;2023-02-17T12:50:21;97705.53;;;11.79;100.00
11936;BME280;6027;48.576;9.180;2023-02-17T12:52:54;97702.88;;;11.79;100.00
11936;BME280;6027;48.576;9.180;2023-02-17T12:55:26;97707.00;;;11.82;100.00
11936;BME280;6027;48.576;9.180;2023-02-17T12:57:57;97705.03;;;11.84;100.00
11936;BME280;6027;48.576;9.180;2023-02-17T13:00:33;97702.38;;;11.84;100.00
11936;BME280;6027;48.576;9.180;2023-02-17T13:03:01;97697.22;;;11.90;100.00
11936;BME280;6027;48.576;9.180;2023-02-17T13:05:37;97704.34;;;11.90;100.00
11936;BME280;6027;48.576;9.180;2023-02-17T13:08:17;97692.91;;;11.89;100.00
11936;BME280;6027;48.576;9.180;2023-02-17T13:10:45;97694.03;;;11.95;100.00
11936;BME280;6027;48.576;9.180;2023-02-17T13:13:12;97699.84;;;11.98;100.00
11936;BME280;6027;48.576;9.180;2023-02-17T13:15:42;97692.84;;;12.05;100.00
11936;BME280;6027;48.576;9.180;2023-02-17T13:18:12;97681.00;;;12.16;100.00
11936;BME280;6027;48.576;9.180;2023-02-17T13:20:59;97679.19;;;12.17;100.00
11936;BME280;6027;48.576;9.180;2023-02-17T13:23:38;97688.31;;;12.22;100.00
11936;BME280;6027;48.576;9.180;2023-02-17T13:26:15;97678.00;;;12.27;100.00
11936;BME280;6027;48.576;9.180;2023-02-17T13:28:42;97691.56;;;12.32;100.00
11936;BME280;6027;48.576;9.180;2023-02-17T13:31:16;97691.28;;;12.27;100.00
11936;BME280;6027;48.576;9.180;2023-02-17T13:33:45;97687.31;;;12.23;100.00
11936;BME280;6027;48.576;9.180;2023-02-17T13:39:05;97693.00;;;12.12;100.00
11936;BME280;6027;48.576;9.180;2023-02-17T13:41:53;97711.25;;;12.07;100.00
11936;BME280;6027;48.576;9.180;2023-02-17T13:44:27;97695.69;;;12.04;100.00
11936;BME280;6027;48.576;9.180;2023-02-17T13:47:16;97697.50;;;12.03;100.00
11936;BME280;6027;48.576;9.180;2023-02-17T13:49:53;97687.72;;;12.04;100.00
11936;BME280;6027;48.576;9.180;2023-02-17T13:52:23;97678.75;;;12.05;100.00
11936;BME280;6027;48.576;9.180;2023-02-17T13:54:52;97684.22;;;12.12;100.00
11936;BME280;6027;48.576;9.180;2023-02-17T13:57:29;97690.34;;;12.12;100.00
11936;BME280;6027;48.576;9.180;2023-02-17T14:00:09;97684.22;;;12.12;100.00
11936;BME280;6027;48.576;9.180;2023-02-17T14:02:37;97692.81;;;12.14;100.00
11936;BME280;6027;48.576;9.180;2023-02-17T14:05:34;97686.88;;;12.12;100.00
11936;BME280;6027;48.576;9.180;2023-02-17T14:08:29;97684.22;;;12.12;100.00
11936;BME280;6027;48.576;9.180;2023-02-17T14:11:00;97680.69;;;12.19;100.00
11936;BME280;6027;48.576;9.180;2023-02-17T14:13:28;97690.97;;;12.22;100.00
11936;BME280;6027;48.576;9.180;2023-02-17T14:15:56;97690.44;;;12.27;100.00
11936;BME280;6027;48.576;9.180;2023-02-17T14:18:38;97682.75;;;12.32;100.00
11936;BME280;6027;48.576;9.180;2023-02-17T14:21:12;97680.94;;;12.32;100.00
11936;BME280;6027;48.576;9.180;2023-02-17T14:23:49;97673.81;;;12.33;100.00
11936;BME280;6027;48.576;9.180;2023-02-17T14:26:37;97677.94;;;12.35;100.00
11936;BME280;6027;48.576;9.180;2023-02-17T14:29:06;97682.75;;;12.40;100.00
11936;BME280;6027;48.576;9.180;2023-02-17T14:31:37;97677.44;;;12.40;100.00
11936;BME280;6027;48.576;9.180;2023-02-17T14:34:04;97674.09;;;12.46;100.00
11936;BME280;6027;48.576;9.180;2023-02-17T14:36:31;97678.09;;;12.42;100.00
11936;BME280;6027;48.576;9.180;2023-02-17T14:38:58;97670.94;;;12.42;100.00
11936;BME280;6027;48.576;9.180;2023-02-17T14:41:24;97672.25;;;12.47;100.00
11936;BME280;6027;48.576;9.180;2023-02-17T14:43:49;97667.78;;;12.47;100.00